Time;durP1;ratioP1;P1;durP2;ratioP2;P2;SDS_P1;SDS_P2;PMS_P1;PMS_P2;Temp;Humidity;BMP_temperature;BMP_pressure;BME280_temperature;BME280_humidity;BME280_pressure;Samples;Min_cycle;Max_cycle;Signal;HPM_P1;HPM_P2
2023/11/25 00:00:20;;;;;;;13.88;8.25;;;;;;;11.73;65.90;96684.50;4955307;28;20035;-74
2023/11/25 00:02:48;;;;;;;12.80;7.55;;;;;;;11.74;66.33;96678.31;4954921;29;20118;-75
2023/11/25 00:05:14;;;;;;;12.77;7.88;;;;;;;11.73;65.85;96674.91;4953861;29;20046;-74
2023/11/25 00:07:39;;;;;;;13.20;7.38;;;;;;;11.76;66.22;96668.47;4938171;29;20027;-75
2023/11/25 00:10:05;;;;;;;11.52;8.13;;;;;;;11.75;65.94;96659.03;4954009;28;20046;-75
2023/11/25 00:12:31;;;;;;;11.57;7.18;;;;;;;11.81;66.12;96663.53;4970029;28;20027;-74
2023/11/25 00:14:56;;;;;;;12.18;7.43;;;;;;;11.78;66.20;96656.06;4954207;29;20038;-76
2023/11/25 00:17:24;;;;;;;11.77;7.38;;;;;;;11.75;66.24;96654.63;4960431;28;20031;-75
2023/11/25 00:19:50;;;;;;;12.25;7.47;;;;;;;11.80;66.01;96664.53;4962362;28;20081;-74
2023/11/25 00:22:16;;;;;;;13.65;7.47;;;;;;;11.83;66.32;96658.97;4988037;28;20173;-75
2023/11/25 00:24:41;;;;;;;17.42;7.45;;;;;;;11.83;66.21;96653.75;4948666;28;20047;-75
2023/11/25 00:27:07;;;;;;;12.73;7.70;;;;;;;11.81;66.10;96653.09;4939871;28;20039;-75
2023/11/25 00:29:33;;;;;;;11.95;7.82;;;;;;;11.87;66.39;96646.34;4989107;28;20034;-75
2023/11/25 00:32:00;;;;;;;11.48;7.78;;;;;;;11.88;66.13;96634.91;4963192;28;20035;-77
2023/11/25 00:34:26;;;;;;;10.65;7.53;;;;;;;11.90;66.19;96643.38;4937682;29;20508;-76
2023/11/25 00:36:51;;;;;;;10.90;7.72;;;;;;;11.91;66.49;96640.59;4946503;28;20047;-74
2023/11/25 00:39:19;;;;;;;12.30;7.90;;;;;;;11.88;66.31;96622.66;4961531;28;20150;-75
2023/11/25 00:41:45;;;;;;;13.15;8.27;;;;;;;11.92;66.22;96631.81;4953584;29;20491;-75
2023/11/25 00:44:11;;;;;;;12.00;7.35;;;;;;;11.95;66.39;96630.63;4974910;28;20031;-76
2023/11/25 00:46:38;;;;;;;13.45;7.65;;;;;;;11.91;66.42;96617.06;4982463;28;20474;-75
2023/11/25 00:49:04;;;;;;;10.73;7.13;;;;;;;11.90;66.54;96615.44;4943662;28;20086;-76
2023/11/25 00:51:30;;;;;;;13.38;7.85;;;;;;;11.94;66.41;96624.59;4960093;28;20058;-74
2023/11/25 00:53:56;;;;;;;11.27;6.75;;;;;;;11.96;66.55;96619.19;4963765;28;20042;-76
2023/11/25 00:56:21;;;;;;;12.05;7.22;;;;;;;12.00;66.54;96625.69;4943503;28;20027;-76
2023/11/25 00:58:47;;;;;;;13.38;7.10;;;;;;;12.00;66.55;96615.22;4965339;28;20474;-75
2023/11/25 01:01:12;;;;;;;12.05;6.82;;;;;;;12.02;66.37;96612.41;4966109;28;20121;-76
2023/11/25 01:03:38;;;;;;;10.15;6.80;;;;;;;12.04;66.69;96606.03;4945498;28;20484;-77
2023/11/25 01:06:07;;;;;;;10.48;7.18;;;;;;;12.04;66.41;96598.19;4963649;28;20030;-76
2023/11/25 01:08:33;;;;;;;18.05;10.32;;;;;;;12.04;66.66;96592.16;4959107;28;20038;-76
2023/11/25 01:10:59;;;;;;;17.83;11.57;;;;;;;12.06;66.49;96592.78;4940620;28;20043;-76
2023/11/25 01:13:24;;;;;;;22.10;13.85;;;;;;;12.04;66.75;96571.22;4962578;28;20022;-74
2023/11/25 01:15:51;;;;;;;21.40;14.30;;;;;;;12.07;66.37;96582.13;4955835;28;20035;-76
2023/11/25 01:18:17;;;;;;;21.67;13.43;;;;;;;12.05;66.57;96578.91;4989003;28;20463;-75
2023/11/25 01:20:43;;;;;;;20.23;13.98;;;;;;;12.06;66.49;96564.81;4960393;28;20094;-76
2023/11/25 01:23:08;;;;;;;22.67;13.90;;;;;;;12.12;66.37;96589.44;4963980;28;20055;-75
2023/11/25 01:25:34;;;;;;;22.85;13.05;;;;;;;12.08;66.66;96575.91;4963243;28;20042;-74
2023/11/25 01:27:59;;;;;;;21.40;13.55;;;;;;;12.11;66.36;96572.94;4947123;28;20477;-75
2023/11/25 01:30:25;;;;;;;22.13;13.05;;;;;;;12.13;66.67;96565.72;4957062;28;20039;-75
2023/11/25 01:32:50;;;;;;;19.13;13.05;;;;;;;12.16;66.71;96566.34;4961673;28;20023;-75
2023/11/25 01:35:16;;;;;;;17.23;11.73;;;;;;;12.16;66.59;96548.88;4953544;28;20059;-74
2023/11/25 01:37:41;;;;;;;18.35;11.35;;;;;;;12.18;66.37;96549.50;4963705;28;20039;-75
2023/11/25 01:40:10;;;;;;;19.50;11.52;;;;;;;12.15;66.55;96522.91;4965198;28;20023;-76
2023/11/25 01:42:36;;;;;;;16.17;11.38;;;;;;;12.20;66.58;96523.97;4971776;28;20490;-74
2023/11/25 01:45:02;;;;;;;17.02;10.43;;;;;;;12.21;66.51;96509.09;4954146;28;20038;-75
2023/11/25 01:47:28;;;;;;;16.55;10.55;;;;;;;12.18;66.72;96501.63;4968315;28;20039;-74
2023/11/25 01:49:54;;;;;;;14.23;10.02;;;;;;;12.23;66.50;96510.53;4943591;28;20598;-75
2023/11/25 01:52:19;;;;;;;14.60;9.82;;;;;;;12.21;66.69;96496.81;4950349;28;20043;-75
2023/11/25 01:54:45;;;;;;;14.13;9.40;;;;;;;12.24;66.40;96491.22;4956646;28;20129;-74
2023/11/25 01:57:10;;;;;;;12.68;8.57;;;;;;;12.25;66.56;96484.97;4971618;28;20038;-75
2023/11/25 01:59:36;;;;;;;15.25;9.00;;;;;;;12.23;66.53;96488.78;4974171;28;20410;-75
2023/11/25 02:02:03;;;;;;;12.80;8.27;;;;;;;12.23;66.63;96486.19;4952919;28;20034;-75
2023/11/25 02:04:28;;;;;;;14.00;8.50;;;;;;;12.27;66.75;96485.63;4957472;28;20030;-75
2023/11/25 02:06:54;;;;;;;11.02;7.35;;;;;;;12.28;66.63;96475.97;4968144;28;20023;-75
2023/11/25 02:09:24;;;;;;;14.35;7.90;;;;;;;12.25;66.47;96479.75;4967415;28;20031;-74
2023/11/25 02:11:58;;;;;;;11.48;7.57;;;;;;;12.29;66.29;96485.44;4952601;28;20035;-75
2023/11/25 02:14:25;;;;;;;14.43;7.07;;;;;;;12.30;66.51;96480.03;4970383;28;20030;-76
2023/11/25 02:16:51;;;;;;;12.80;7.07;;;;;;;12.29;66.49;96473.16;4955615;28;20483;-74
2023/11/25 02:19:18;;;;;;;10.90;6.82;;;;;;;12.32;66.52;96469.38;4955666;28;20062;-74
2023/11/25 02:21:44;;;;;;;12.02;6.97;;;;;;;12.31;66.41;96463.31;4971660;28;20038;-75
2023/11/25 02:24:13;;;;;;;11.57;6.72;;;;;;;12.34;66.16;96466.59;4971248;28;20046;-75
2023/11/25 02:26:39;;;;;;;10.75;6.95;;;;;;;12.30;66.54;96455.66;4971584;28;20031;-75
2023/11/25 02:29:05;;;;;;;11.68;6.40;;;;;;;12.35;66.50;96466.41;4971389;28;20040;-75
2023/11/25 02:31:32;;;;;;;10.52;5.93;;;;;;;12.31;66.57;96449.44;4955497;28;20206;-75
2023/11/25 02:33:58;;;;;;;8.15;5.45;;;;;;;12.31;66.37;96445.00;4971646;28;20166;-75
2023/11/25 02:36:23;;;;;;;7.80;5.63;;;;;;;12.35;66.53;96453.31;4955898;28;20109;-75
2023/11/25 02:38:49;;;;;;;10.48;6.05;;;;;;;12.38;66.24;96447.72;4971546;28;20413;-75
2023/11/25 02:41:15;;;;;;;10.65;5.45;;;;;;;12.39;66.61;96454.56;4971609;28;20507;-75
2023/11/25 02:43:41;;;;;;;7.05;5.13;;;;;;;12.39;66.19;96449.31;4973151;28;20110;-75
2023/11/25 02:46:06;;;;;;;10.98;6.05;;;;;;;12.39;66.46;96440.69;4959409;28;20053;-75
2023/11/25 02:48:32;;;;;;;12.10;5.72;;;;;;;12.42;66.08;96438.50;4974878;28;20466;-76
2023/11/25 02:50:57;;;;;;;8.93;5.10;;;;;;;12.42;66.34;96435.88;4976567;28;20053;-76
2023/11/25 02:53:23;;;;;;;11.75;5.55;;;;;;;12.38;66.32;96429.41;4959196;28;20415;-75
2023/11/25 02:55:49;;;;;;;10.00;5.40;;;;;;;12.42;66.41;96420.19;4974731;28;20019;-75
2023/11/25 02:58:15;;;;;;;10.85;5.57;;;;;;;12.42;66.35;96412.34;4975879;28;20415;-76
2023/11/25 03:00:40;;;;;;;7.13;5.30;;;;;;;12.37;66.37;96401.63;4990895;28;20054;-75
2023/11/25 03:03:22;;;;;;;10.65;5.20;;;;;;;12.40;66.39;96413.53;4974665;28;20043;-75
2023/11/25 03:05:52;;;;;;;10.68;5.45;;;;;;;12.38;66.28;96412.88;4961095;28;20383;-76
2023/11/25 03:08:18;;;;;;;8.45;5.10;;;;;;;12.36;66.22;96400.00;4974882;28;20098;-75
2023/11/25 03:10:46;;;;;;;9.23;5.32;;;;;;;12.33;66.30;96394.31;4958550;28;20031;-77
2023/11/25 03:13:11;;;;;;;7.85;5.68;;;;;;;12.34;66.33;96393.34;4959617;28;20046;-76
2023/11/25 03:15:37;;;;;;;10.15;4.80;;;;;;;12.34;66.68;96393.34;4974356;28;20505;-75
2023/11/25 03:18:05;;;;;;;7.70;4.80;;;;;;;12.32;66.65;96396.16;4990583;28;20034;-74
2023/11/25 03:20:34;;;;;;;8.07;5.07;;;;;;;12.30;66.69;96400.72;4990257;28;20037;-74
2023/11/25 03:23:01;;;;;;;7.13;4.65;;;;;;;12.26;66.77;96376.75;4974121;28;20050;-75
2023/11/25 03:25:29;;;;;;;9.13;5.20;;;;;;;12.24;66.80;96370.91;4958227;28;20043;-75
2023/11/25 03:27:55;;;;;;;7.63;4.93;;;;;;;12.27;67.09;96375.78;4958574;28;20066;-75
2023/11/25 03:30:22;;;;;;;9.07;4.75;;;;;;;12.28;66.94;96371.34;4974267;28;20041;-76
2023/11/25 03:32:48;;;;;;;8.27;4.88;;;;;;;12.26;66.89;96370.72;4974216;28;20085;-75
2023/11/25 03:35:13;;;;;;;7.75;4.63;;;;;;;12.26;66.86;96370.72;4990170;28;20039;-75
2023/11/25 03:37:40;;;;;;;10.30;5.10;;;;;;;12.26;66.79;96360.25;4973769;28;20117;-75
2023/11/25 03:40:07;;;;;;;14.05;4.88;;;;;;;12.27;66.93;96361.84;4975190;28;20038;-74
2023/11/25 03:42:35;;;;;;;10.13;4.88;;;;;;;12.24;67.25;96349.16;4990210;28;20367;-76
2023/11/25 03:45:01;;;;;;;7.32;4.68;;;;;;;12.24;66.58;96357.00;4974229;28;20074;-74
2023/11/25 03:47:28;;;;;;;7.10;4.55;;;;;;;12.23;66.96;96364.03;4973714;28;20027;-74
2023/11/25 03:49:54;;;;;;;9.82;5.07;;;;;;;12.23;67.01;96353.59;4974886;28;20038;-74
2023/11/25 03:52:21;;;;;;;10.43;5.00;;;;;;;12.21;67.17;96350.34;4973767;28;20522;-75
2023/11/25 03:54:46;;;;;;;8.07;4.63;;;;;;;12.21;67.02;96346.94;4975222;28;20030;-74
2023/11/25 03:57:12;;;;;;;12.38;5.40;;;;;;;12.22;67.07;96338.88;4973709;28;20446;-74
2023/11/25 03:59:37;;;;;;;8.18;4.70;;;;;;;12.20;67.02;96329.63;4973733;28;20485;-75
2023/11/25 04:02:03;;;;;;;6.10;4.55;;;;;;;12.22;67.43;96325.78;4957915;28;20042;-75
2023/11/25 04:04:28;;;;;;;6.95;5.18;;;;;;;12.19;66.92;96320.13;4973919;28;20058;-75
2023/11/25 04:06:54;;;;;;;9.30;5.45;;;;;;;12.19;66.80;96317.53;4973754;28;20407;-74
2023/11/25 04:09:20;;;;;;;8.52;4.95;;;;;;;12.22;67.25;96307.50;4973398;28;20117;-76
2023/11/25 04:11:45;;;;;;;7.20;4.70;;;;;;;12.17;67.15;96295.97;4973343;28;20050;-76
2023/11/25 04:14:11;;;;;;;10.57;5.32;;;;;;;12.20;67.54;96308.69;4973269;28;20117;-75
2023/11/25 04:16:36;;;;;;;9.30;4.95;;;;;;;12.18;67.31;96297.63;4973472;28;20077;-75
2023/11/25 04:19:02;;;;;;;7.60;4.60;;;;;;;12.18;67.13;96300.22;4973302;28;20038;-75
2023/11/25 04:21:28;;;;;;;7.22;4.90;;;;;;;12.18;67.02;96302.84;4990319;28;20070;-74
2023/11/25 04:23:55;;;;;;;7.57;4.72;;;;;;;12.18;67.02;96305.47;4988869;28;20093;-75
2023/11/25 04:26:21;;;;;;;8.65;5.18;;;;;;;12.16;67.35;96297.81;4973048;28;20042;-75
2023/11/25 04:28:47;;;;;;;7.38;5.20;;;;;;;12.12;67.08;96288.69;4974187;28;20042;-74
2023/11/25 04:31:14;;;;;;;8.07;4.75;;;;;;;12.16;67.08;96286.50;4989321;28;20558;-74
2023/11/25 04:33:39;;;;;;;8.15;4.65;;;;;;;12.15;67.07;96301.41;4973190;28;20034;-75
2023/11/25 04:36:05;;;;;;;7.13;4.70;;;;;;;12.15;67.05;96293.56;4989055;28;20505;-76
2023/11/25 04:38:31;;;;;;;8.45;4.90;;;;;;;12.10;67.32;96288.09;4989594;28;20027;-78
2023/11/25 04:40:56;;;;;;;7.68;5.10;;;;;;;12.15;67.28;96296.16;4973559;28;20487;-76
2023/11/25 04:43:22;;;;;;;8.95;4.82;;;;;;;12.16;67.41;96299.59;4972801;28;20031;-75
2023/11/25 04:45:48;;;;;;;7.40;4.82;;;;;;;12.17;66.97;96282.91;4974390;28;20034;-76
2023/11/25 04:48:13;;;;;;;8.98;5.15;;;;;;;12.11;67.10;96284.44;4974435;28;20069;-75
2023/11/25 04:50:39;;;;;;;8.82;4.65;;;;;;;12.16;67.15;96276.03;4972390;28;20042;-75
2023/11/25 04:53:05;;;;;;;6.47;4.70;;;;;;;12.14;67.23;96263.16;4972680;28;20043;-75
2023/11/25 04:55:31;;;;;;;8.02;5.07;;;;;;;12.15;67.24;96262.19;4972701;28;20027;-75
2023/11/25 04:57:57;;;;;;;9.07;4.32;;;;;;;12.10;67.39;96256.69;4956771;28;20130;-75
2023/11/25 05:00:22;;;;;;;7.43;4.93;;;;;;;12.13;67.41;96259.75;4989187;28;20030;-75
2023/11/25 05:02:48;;;;;;;6.72;4.15;;;;;;;12.09;67.44;96260.31;4972615;28;20074;-76
2023/11/25 05:05:13;;;;;;;7.60;4.55;;;;;;;12.08;67.35;96259.50;4988907;28;20026;-75
2023/11/25 05:07:39;;;;;;;6.90;4.78;;;;;;;12.12;67.25;96262.53;4988193;28;20034;-74
2023/11/25 05:10:06;;;;;;;7.78;4.55;;;;;;;12.12;67.60;96260.72;4972185;28;20391;-75
2023/11/25 05:12:32;;;;;;;10.20;5.50;;;;;;;12.07;67.43;96242.19;4972901;28;20037;-76
2023/11/25 05:14:57;;;;;;;11.50;4.43;;;;;;;12.12;67.25;96252.09;4988789;28;20026;-75
2023/11/25 05:17:25;;;;;;;9.95;4.85;;;;;;;12.07;67.42;96247.41;4988381;28;20081;-76
2023/11/25 05:19:50;;;;;;;6.85;4.07;;;;;;;12.10;67.17;96243.63;4988714;28;20041;-75
2023/11/25 05:22:16;;;;;;;9.35;4.82;;;;;;;12.10;67.21;96254.09;4988491;28;20035;-75
2023/11/25 05:24:41;;;;;;;9.15;4.35;;;;;;;12.10;67.72;96251.47;4988330;28;20031;-74
2023/11/25 05:27:07;;;;;;;8.07;4.80;;;;;;;12.10;67.33;96254.09;4971864;28;20022;-76
2023/11/25 05:29:32;;;;;;;7.88;4.88;;;;;;;12.09;67.43;96250.66;4972122;28;20130;-76
2023/11/25 05:31:58;;;;;;;11.23;5.32;;;;;;;12.10;67.37;96246.25;4989002;28;20422;-75
2023/11/25 05:34:27;;;;;;;12.75;4.90;;;;;;;12.11;67.23;96247.84;4988121;28;20093;-75
2023/11/25 05:36:52;;;;;;;8.75;5.07;;;;;;;12.11;67.37;96240.81;4988464;28;20053;-76
2023/11/25 05:39:20;;;;;;;9.02;5.28;;;;;;;12.11;67.49;96242.63;4973250;28;20035;-75
2023/11/25 05:41:49;;;;;;;8.30;4.72;;;;;;;12.12;67.45;96233.78;4988227;28;20035;-75
2023/11/25 05:44:15;;;;;;;11.43;5.57;;;;;;;12.12;67.26;96234.59;4972095;28;20035;-75
2023/11/25 05:46:40;;;;;;;8.32;4.80;;;;;;;12.09;67.37;96223.69;4988278;28;20046;-75
2023/11/25 05:49:08;;;;;;;8.52;4.90;;;;;;;12.14;67.52;96231.78;4988019;28;20046;-76
2023/11/25 05:51:43;;;;;;;16.07;4.77;;;;;;;12.16;67.30;96226.34;4987770;28;20038;-74
2023/11/25 05:54:12;;;;;;;7.43;4.70;;;;;;;12.12;67.36;96210.25;4972397;28;20270;-75
2023/11/25 05:56:39;;;;;;;10.65;4.70;;;;;;;12.12;67.18;96216.28;4956391;28;20050;-80
2023/11/25 05:59:04;;;;;;;5.57;3.20;;;;;;;12.33;68.62;96212.00;4972258;28;20039;-76
2023/11/25 06:01:30;;;;;;;9.82;3.50;;;;;;;12.40;68.02;96219.94;4973732;28;20023;-75
2023/11/25 06:03:56;;;;;;;7.50;3.55;;;;;;;12.42;68.23;96210.88;4971833;28;20039;-76
2023/11/25 06:06:22;;;;;;;5.13;3.42;;;;;;;12.44;67.83;96215.91;4971543;28;20049;-76
2023/11/25 06:08:48;;;;;;;5.88;3.20;;;;;;;12.45;68.38;96214.94;4988000;28;20053;-75
2023/11/25 06:11:27;;;;;;;7.93;3.90;;;;;;;12.46;67.68;96203.44;4955728;28;20490;-76
2023/11/25 06:13:55;;;;;;;4.47;3.25;;;;;;;12.69;71.48;96205.81;4972635;28;20031;-74
2023/11/25 06:16:21;;;;;;;10.52;2.90;;;;;;;12.72;71.12;96200.19;4972917;28;20026;-77
2023/11/25 06:18:47;;;;;;;13.02;3.30;;;;;;;12.74;69.81;96203.41;4956915;28;20046;-75
2023/11/25 06:21:12;;;;;;;9.18;2.92;;;;;;;12.78;69.93;96215.13;4975622;28;20027;-76
2023/11/25 06:23:38;;;;;;;8.77;3.40;;;;;;;12.88;71.18;96224.47;4959429;28;20054;-74
2023/11/25 06:26:06;;;;;;;5.63;3.08;;;;;;;12.89;70.29;96219.03;4975061;28;20487;-73
2023/11/25 06:28:31;;;;;;;7.43;3.15;;;;;;;12.91;69.06;96224.06;4959658;28;20069;-75
2023/11/25 06:30:57;;;;;;;7.07;3.22;;;;;;;12.92;68.67;96223.06;4975361;28;20439;-81
2023/11/25 06:33:24;;;;;;;9.02;3.00;;;;;;;12.93;68.18;96230.72;4976080;28;20027;-81
2023/11/25 06:35:50;;;;;;;6.05;3.33;;;;;;;12.91;68.21;96229.31;4961110;28;20423;-83
2023/11/25 06:38:15;;;;;;;5.32;2.95;;;;;;;12.91;67.76;96221.44;4978024;28;20486;-76
2023/11/25 06:40:41;;;;;;;5.82;3.08;;;;;;;12.95;67.62;96225.28;4977162;28;20038;-77
2023/11/25 06:43:07;;;;;;;8.57;3.15;;;;;;;12.96;67.68;96219.06;4975476;28;20023;-76
2023/11/25 06:46:16;;;;;;;7.35;3.28;;;;;;;12.94;67.37;96215.84;4975820;28;20042;-78
2023/11/25 06:48:41;;;;;;;5.20;3.45;;;;;;;12.94;67.40;96218.44;4991206;28;20486;-77
2023/11/25 06:51:07;;;;;;;6.32;3.17;;;;;;;12.95;67.38;96220.88;4975463;28;20062;-77
2023/11/25 06:54:13;;;;;;;6.65;3.30;;;;;;;12.96;67.04;96216.44;4974406;28;20047;-77
2023/11/25 07:00:00;;;;;;;8.20;3.47;;;;;;;12.98;67.21;96210.00;4976183;28;20518;-76
2023/11/25 07:02:27;;;;;;;6.93;3.50;;;;;;;12.99;67.22;96210.81;4974781;28;20125;-78
2023/11/25 07:04:52;;;;;;;8.40;4.13;;;;;;;13.01;67.12;96211.41;4974730;28;20089;-76
2023/11/25 07:07:18;;;;;;;8.30;3.63;;;;;;;13.04;66.67;96208.41;4974879;28;20027;-78
2023/11/25 07:10:04;;;;;;;7.80;3.45;;;;;;;13.05;66.30;96209.25;4990343;28;20043;-77
2023/11/25 07:13:01;;;;;;;7.38;3.83;;;;;;;13.07;66.32;96215.09;4991260;28;20038;-76
2023/11/25 07:15:27;;;;;;;6.30;3.95;;;;;;;13.03;66.47;96219.91;4974844;28;20082;-77
2023/11/25 07:17:52;;;;;;;6.30;3.40;;;;;;;13.08;66.29;96229.78;4990822;28;20031;-75
2023/11/25 07:20:18;;;;;;;6.40;4.50;;;;;;;13.08;66.18;96222.75;4974228;28;20051;-73
2023/11/25 07:22:44;;;;;;;5.70;3.70;;;;;;;13.10;65.93;96231.22;4974080;28;20581;-76
2023/11/25 07:25:13;;;;;;;6.53;3.63;;;;;;;13.08;66.03;96212.28;4958126;28;20172;-76
2023/11/25 07:27:44;;;;;;;6.50;4.30;;;;;;;13.11;66.00;96216.28;4958013;28;20030;-75
2023/11/25 07:30:10;;;;;;;6.00;4.22;;;;;;;13.16;66.05;96227.03;4974002;28;20113;-76
2023/11/25 07:32:37;;;;;;;6.20;3.97;;;;;;;13.16;65.81;96221.78;4975527;28;20061;-75
2023/11/25 07:35:06;;;;;;;8.18;4.10;;;;;;;13.14;65.83;96224.59;4973784;28;20031;-74
2023/11/25 07:37:33;;;;;;;7.30;3.80;;;;;;;13.14;65.74;96223.75;4974667;28;20031;-76
2023/11/25 07:39:58;;;;;;;6.22;3.90;;;;;;;13.13;65.88;96217.72;4974045;28;20033;-76
2023/11/25 07:42:24;;;;;;;8.20;3.80;;;;;;;13.13;65.57;96216.94;4975790;28;20034;-75
2023/11/25 07:44:49;;;;;;;7.90;4.20;;;;;;;13.12;65.99;96213.47;4973868;28;20043;-75
2023/11/25 07:47:15;;;;;;;7.28;4.20;;;;;;;13.11;65.66;96219.75;4957699;28;20104;-77
2023/11/25 07:49:43;;;;;;;7.13;3.92;;;;;;;13.07;65.51;96213.25;4974120;28;20073;-76
2023/11/25 07:52:09;;;;;;;9.00;3.90;;;;;;;13.07;65.42;96209.84;4974076;28;20038;-75
2023/11/25 07:54:35;;;;;;;5.22;3.67;;;;;;;13.12;65.08;96212.69;4957828;28;20046;-75
2023/11/25 07:57:00;;;;;;;5.82;3.40;;;;;;;13.10;65.41;96210.25;4958307;28;20046;-75
2023/11/25 07:59:26;;;;;;;5.55;3.38;;;;;;;13.05;65.31;96204.00;4989766;28;20027;-76
2023/11/25 08:01:53;;;;;;;5.78;3.42;;;;;;;13.09;65.30;96198.16;4957742;28;20479;-75
2023/11/25 08:04:19;;;;;;;6.07;3.40;;;;;;;13.08;65.25;96191.31;4974077;28;20030;-76
2023/11/25 08:06:45;;;;;;;5.72;3.42;;;;;;;13.09;64.83;96185.06;4973803;28;20431;-74
2023/11/25 08:09:10;;;;;;;3.95;3.03;;;;;;;13.06;65.08;96184.66;4973796;28;20070;-75
2023/11/25 08:11:35;;;;;;;4.18;2.80;;;;;;;13.09;65.05;96187.69;4973759;28;20050;-75
2023/11/25 08:14:01;;;;;;;7.55;2.92;;;;;;;13.08;65.09;96190.50;4973775;28;20114;-75
2023/11/25 08:16:27;;;;;;;5.10;2.78;;;;;;;13.11;65.03;96182.25;4957611;28;20039;-75
2023/11/25 08:18:52;;;;;;;4.85;2.80;;;;;;;13.10;64.93;96176.22;4957400;28;20066;-75
2023/11/25 08:21:18;;;;;;;5.07;2.80;;;;;;;13.09;64.63;96182.44;4973381;28;20046;-75
2023/11/25 08:23:43;;;;;;;4.22;2.58;;;;;;;13.07;64.55;96184.47;4973036;28;20054;-75
2023/11/25 08:26:22;;;;;;;3.33;2.28;;;;;;;13.04;64.23;96190.09;4973452;28;20027;-74
2023/11/25 08:28:50;;;;;;;3.08;2.08;;;;;;;13.01;64.44;96188.69;4973387;28;20443;-76
2023/11/25 08:31:16;;;;;;;4.22;2.20;;;;;;;13.00;63.97;96183.63;4973768;28;20039;-75
2023/11/25 08:33:42;;;;;;;3.10;1.80;;;;;;;12.99;64.11;96198.53;4973363;28;20030;-78
2023/11/25 08:36:09;;;;;;;5.00;2.00;;;;;;;12.95;63.84;96186.00;4972759;28;20106;-77
2023/11/25 08:38:35;;;;;;;2.80;1.85;;;;;;;12.94;63.74;96179.97;4973707;28;20073;-77
2023/11/25 08:41:01;;;;;;;2.35;1.73;;;;;;;12.93;63.66;96170.50;4955999;28;20673;-75
2023/11/25 08:43:28;;;;;;;3.47;1.73;;;;;;;12.93;63.50;96174.94;4972514;28;20046;-75
2023/11/25 08:45:53;;;;;;;3.42;1.67;;;;;;;12.89;63.31;96161.44;4972762;28;20050;-75
2023/11/25 08:48:20;;;;;;;2.55;1.63;;;;;;;12.82;63.19;96164.03;4973563;28;20471;-75
2023/11/25 08:50:45;;;;;;;2.58;1.50;;;;;;;12.83;62.97;96167.44;4988932;28;20039;-74
2023/11/25 08:53:11;;;;;;;2.30;1.33;;;;;;;12.81;62.71;96154.53;4988612;28;20033;-74
2023/11/25 08:55:36;;;;;;;2.88;1.58;;;;;;;12.75;63.13;96151.91;4972677;28;20034;-75
2023/11/25 08:58:03;;;;;;;2.80;1.58;;;;;;;12.77;63.02;96155.13;4989096;28;20034;-75
2023/11/25 09:00:29;;;;;;;3.00;1.27;;;;;;;12.76;62.95;96149.09;4972682;28;20031;-75
2023/11/25 09:02:57;;;;;;;3.85;1.13;;;;;;;12.73;62.50;96144.25;4972587;28;20471;-75
2023/11/25 09:05:22;;;;;;;3.47;1.10;;;;;;;12.70;62.67;96131.53;4957325;28;20039;-75
2023/11/25 09:07:52;;;;;;;2.33;1.10;;;;;;;12.65;62.81;96134.75;4988542;28;20043;-74
2023/11/25 09:10:17;;;;;;;1.70;1.05;;;;;;;12.64;62.49;96134.94;4972484;28;20058;-75
2023/11/25 09:12:45;;;;;;;3.22;1.10;;;;;;;12.60;62.56;96136.31;4956504;28;20038;-73
2023/11/25 09:15:12;;;;;;;2.45;0.90;;;;;;;12.58;62.54;96135.69;4988916;28;20027;-75
2023/11/25 09:17:39;;;;;;;3.13;1.23;;;;;;;12.58;62.80;96133.88;4988309;28;20030;-75
2023/11/25 09:20:16;;;;;;;1.52;0.80;;;;;;;12.55;62.24;96142.13;4972721;28;20077;-75
2023/11/25 09:22:41;;;;;;;1.55;0.95;;;;;;;12.48;62.30;96129.00;4957035;28;20101;-75
2023/11/25 09:25:10;;;;;;;1.63;0.85;;;;;;;12.51;62.12;96142.69;4972210;28;20038;-75
2023/11/25 09:27:35;;;;;;;4.38;1.08;;;;;;;12.48;62.10;96141.28;4956527;28;20126;-74
2023/11/25 09:30:01;;;;;;;1.77;0.77;;;;;;;12.43;62.08;96144.47;4955652;28;20463;-75
2023/11/25 09:32:28;;;;;;;1.33;0.80;;;;;;;12.38;62.06;96133.78;4972710;28;20038;-76
2023/11/25 09:34:54;;;;;;;2.67;0.77;;;;;;;12.40;61.53;96138.81;4988524;28;20031;-75
2023/11/25 09:37:20;;;;;;;3.50;0.80;;;;;;;12.37;61.52;96134.78;4971948;28;20048;-76
2023/11/25 09:39:45;;;;;;;0.98;0.60;;;;;;;12.29;61.60;96114.81;4971795;28;20047;-76
2023/11/25 09:42:11;;;;;;;1.33;0.60;;;;;;;12.33;61.46;96114.44;4989102;28;20035;-75
2023/11/25 09:44:38;;;;;;;1.52;0.80;;;;;;;12.31;61.38;96112.00;4973568;28;20439;-75
2023/11/25 09:47:03;;;;;;;2.25;0.50;;;;;;;12.30;61.69;96107.75;4971866;28;20027;-74
2023/11/25 09:49:29;;;;;;;1.50;0.45;;;;;;;12.29;61.18;96112.19;4972301;28;20367;-76
2023/11/25 09:51:55;;;;;;;1.55;0.60;;;;;;;12.28;61.15;96109.78;4972410;28;20033;-75
2023/11/25 09:54:23;;;;;;;0.80;0.50;;;;;;;12.23;60.92;96099.88;4975966;28;20479;-76
2023/11/25 09:56:50;;;;;;;1.85;0.50;;;;;;;12.20;60.67;96089.00;4960081;28;20050;-74
2023/11/25 09:59:15;;;;;;;1.20;0.50;;;;;;;12.18;60.88;96109.31;4975837;28;20030;-75
2023/11/25 10:01:42;;;;;;;2.47;0.65;;;;;;;12.13;60.56;96108.06;4977492;28;20117;-75
2023/11/25 10:04:07;;;;;;;0.70;0.40;;;;;;;12.10;60.79;96111.06;4959689;28;20093;-75
2023/11/25 10:06:33;;;;;;;1.83;0.63;;;;;;;12.11;60.84;96107.47;4975562;28;20038;-75
2023/11/25 10:08:58;;;;;;;0.60;0.40;;;;;;;12.11;60.50;96097.00;4991911;28;20105;-76
2023/11/25 10:11:24;;;;;;;0.80;0.45;;;;;;;12.08;60.35;96089.53;4975986;28;20038;-76
2023/11/25 10:13:50;;;;;;;1.05;0.55;;;;;;;12.07;60.22;96093.13;4959668;28;20126;-75
2023/11/25 10:16:25;;;;;;;1.05;0.55;;;;;;;12.00;60.38;96081.84;4959463;28;20403;-75
2023/11/25 10:18:51;;;;;;;2.40;0.95;;;;;;;12.01;60.61;96078.22;4975737;28;20041;-75
2023/11/25 10:21:16;;;;;;;1.40;0.60;;;;;;;11.97;60.26;96091.84;4959311;28;20043;-74
2023/11/25 10:23:42;;;;;;;0.95;0.40;;;;;;;11.95;60.37;96081.59;4975271;28;20050;-76
2023/11/25 10:26:08;;;;;;;2.33;0.70;;;;;;;11.89;60.15;96082.31;4975737;28;20109;-76
2023/11/25 10:28:33;;;;;;;1.00;0.70;;;;;;;11.87;60.11;96068.63;4959475;28;20046;-75
2023/11/25 10:31:00;;;;;;;1.17;0.60;;;;;;;11.87;59.90;96069.44;4975487;28;20038;-75
2023/11/25 10:33:27;;;;;;;2.40;1.27;;;;;;;11.81;59.84;96070.19;4975331;28;20041;-77
2023/11/25 10:35:53;;;;;;;3.40;1.83;;;;;;;11.81;60.25;96077.25;4959522;28;20505;-73
2023/11/25 10:38:21;;;;;;;5.60;2.63;;;;;;;11.80;60.22;96065.16;4974746;28;20125;-74
2023/11/25 10:40:50;;;;;;;5.80;2.92;;;;;;;11.77;60.13;96063.75;4959352;28;20030;-75
2023/11/25 10:43:16;;;;;;;6.35;3.70;;;;;;;11.75;60.15;96060.53;4990851;28;20055;-74
2023/11/25 10:45:46;;;;;;;6.93;3.60;;;;;;;11.74;60.39;96064.13;4974753;28;20189;-75
2023/11/25 10:48:12;;;;;;;8.02;3.80;;;;;;;11.74;60.04;96058.91;4974897;28;20043;-75
2023/11/25 10:50:40;;;;;;;8.93;4.10;;;;;;;11.71;60.28;96049.63;4974917;28;20027;-77
2023/11/25 10:53:05;;;;;;;7.25;4.00;;;;;;;11.71;59.94;96041.00;4974670;28;20042;-76
2023/11/25 10:55:32;;;;;;;6.82;4.00;;;;;;;11.68;59.66;96036.13;4974638;28;20031;-76
2023/11/25 10:57:59;;;;;;;8.73;4.35;;;;;;;11.66;60.10;96033.72;4974730;28;20125;-75
2023/11/25 11:00:28;;;;;;;5.13;2.78;;;;;;;11.66;59.87;96045.97;4974760;28;20064;-74
2023/11/25 11:02:54;;;;;;;5.28;2.70;;;;;;;11.70;59.83;96050.66;4974573;28;20034;-76
2023/11/25 11:05:34;;;;;;;11.02;3.45;;;;;;;11.68;59.77;96034.31;4974102;28;20034;-78
2023/11/25 11:08:03;;;;;;;4.57;2.60;;;;;;;11.69;59.53;96061.28;4974598;28;20047;-74
2023/11/25 11:10:31;;;;;;;9.20;2.40;;;;;;;11.70;59.51;96055.88;4974507;28;20022;-75
2023/11/25 11:13:02;;;;;;;4.65;2.25;;;;;;;11.71;59.32;96049.63;4974582;28;20467;-75
2023/11/25 11:15:28;;;;;;;3.42;1.98;;;;;;;11.75;59.46;96047.47;4974303;28;20031;-74
2023/11/25 11:18:06;;;;;;;3.30;1.90;;;;;;;11.80;59.48;96052.09;4974313;28;20038;-75
2023/11/25 11:20:32;;;;;;;2.97;1.70;;;;;;;11.81;59.22;96044.06;4975614;28;20023;-75
2023/11/25 11:22:57;;;;;;;2.88;1.42;;;;;;;11.82;59.28;96042.28;4974474;28;20125;-75
2023/11/25 11:25:38;;;;;;;4.07;1.40;;;;;;;11.80;59.07;96044.25;4990126;28;20116;-75
2023/11/25 11:28:23;;;;;;;2.47;1.15;;;;;;;11.76;58.79;96036.81;4975741;28;20019;-75
2023/11/25 11:31:26;;;;;;;1.60;0.90;;;;;;;11.74;58.89;96038.78;4974055;28;20030;-76